Time;durP1;ratioP1;P1;durP2;ratioP2;P2;SDS_P1;SDS_P2;PMS_P1;PMS_P2;Temp;Humidity;BMP_temperature;BMP_pressure;BME280_temperature;BME280_humidity;BME280_pressure;Samples;Min_cycle;Max_cycle;Signal;HPM_P1;HPM_P2
2022/11/06 00:02:19;;;;;;;16.67;10.60;;;;;;;0.69;66.26;100701.41;5094625;27;20516;-67
2022/11/06 00:04:43;;;;;;;14.13;9.95;;;;;;;0.56;66.77;100694.63;5101466;27;20047;-68
2022/11/06 00:07:08;;;;;;;15.05;9.77;;;;;;;0.47;67.16;100706.97;5097012;27;20418;-68
2022/11/06 00:09:33;;;;;;;16.65;11.80;;;;;;;0.42;67.02;100712.31;5094477;27;20471;-69
2022/11/06 00:11:58;;;;;;;15.48;9.65;;;;;;;0.35;66.72;100706.25;5094631;27;20516;-64
2022/11/06 00:14:22;;;;;;;12.38;9.18;;;;;;;0.43;66.81;100707.94;5075790;27;20396;-66
2022/11/06 00:16:47;;;;;;;12.70;8.90;;;;;;;0.33;67.19;100697.56;5080578;27;20053;-66
2022/11/06 00:19:12;;;;;;;11.63;8.32;;;;;;;0.24;67.19;100694.16;5072263;27;20049;-66
2022/11/06 00:21:37;;;;;;;14.35;9.55;;;;;;;0.20;67.28;100703.84;5093153;27;20428;-66
2022/11/06 00:24:05;;;;;;;14.23;9.90;;;;;;;0.17;67.55;100700.38;5097991;27;20051;-66
2022/11/06 00:26:30;;;;;;;12.70;8.68;;;;;;;0.27;66.84;100702.88;5079695;27;20046;-67
2022/11/06 00:28:56;;;;;;;14.07;8.77;;;;;;;0.39;66.65;100706.22;5080959;27;20443;-67
2022/11/06 00:31:26;;;;;;;12.98;9.18;;;;;;;0.18;66.77;100703.00;5100554;27;20073;-67
2022/11/06 00:33:52;;;;;;;11.50;8.60;;;;;;;0.10;67.51;100712.72;5108262;27;20103;-71
2022/11/06 00:36:19;;;;;;;11.60;8.73;;;;;;;0.12;67.61;100707.44;5098575;27;20039;-71
2022/11/06 00:38:45;;;;;;;14.05;8.48;;;;;;;0.13;67.55;100701.28;5091445;27;20035;-73
2022/11/06 00:41:14;;;;;;;11.40;8.68;;;;;;;0.14;67.73;100705.66;5082659;27;20430;-72
2022/11/06 00:43:39;;;;;;;12.15;8.45;;;;;;;0.11;67.70;100705.72;5105401;27;20367;-71
2022/11/06 00:46:11;;;;;;;10.38;7.35;;;;;;;0.17;67.73;100717.00;5080236;27;20409;-71
2022/11/06 00:48:36;;;;;;;11.43;8.10;;;;;;;0.14;66.83;100711.78;5111579;27;20443;-72
2022/11/06 00:51:15;;;;;;;11.18;8.50;;;;;;;0.14;67.56;100706.53;5080212;27;20046;-77
2022/11/06 00:53:41;;;;;;;10.85;8.68;;;;;;;0.08;67.63;100711.84;5079845;27;20031;-73
2022/11/06 00:56:08;;;;;;;10.43;8.07;;;;;;;0.13;67.86;100711.78;5097696;27;20046;-67
2022/11/06 00:58:33;;;;;;;11.70;7.60;;;;;;;0.16;67.81;100704.75;5105507;27;20041;-67
2022/11/06 01:01:20;;;;;;;11.85;7.85;;;;;;;0.25;67.29;100712.50;5118259;27;20488;-68
2022/11/06 01:03:47;;;;;;;13.43;7.95;;;;;;;0.22;66.96;100707.31;5079075;27;20732;-72
2022/11/06 01:06:18;;;;;;;12.13;8.70;;;;;;;0.28;67.38;100719.47;5084941;27;20045;-71
2022/11/06 01:08:44;;;;;;;10.93;7.45;;;;;;;0.21;66.72;100723.94;5084175;27;20100;-73
2022/11/06 01:11:21;;;;;;;12.65;8.35;;;;;;;0.23;67.19;100727.38;5098486;27;20039;-74
2022/11/06 01:13:48;;;;;;;10.20;8.05;;;;;;;0.06;67.37;100726.72;5078423;27;20039;-66
2022/11/06 01:16:14;;;;;;;11.75;7.50;;;;;;;0.06;67.03;100723.25;5078208;27;20032;-72
2022/11/06 01:18:41;;;;;;;11.50;7.82;;;;;;;0.08;67.05;100719.72;5069622;27;20512;-72
2022/11/06 01:21:08;;;;;;;12.27;7.55;;;;;;;0.11;66.82;100727.56;5100446;27;20456;-75
2022/11/06 01:23:34;;;;;;;11.13;7.78;;;;;;;0.03;66.97;100726.75;5076645;27;20523;-73
2022/11/06 01:26:01;;;;;;;8.70;7.18;;;;;;;0.10;67.12;100719.72;5082123;27;20517;-72
2022/11/06 01:28:26;;;;;;;10.73;7.80;;;;;;;0.15;67.21;100729.25;5077753;27;20062;-75
2022/11/06 01:30:51;;;;;;;15.63;10.23;;;;;;;0.18;66.41;100729.22;5081674;27;20382;-73
2022/11/06 01:33:15;;;;;;;12.43;8.73;;;;;;;0.16;66.76;100720.50;5088569;27;20446;-75
2022/11/06 01:35:48;;;;;;;13.50;9.10;;;;;;;0.19;66.04;100722.22;5079825;27;20197;-70
2022/11/06 01:38:13;;;;;;;16.67;10.85;;;;;;;0.04;66.01;100720.63;5077944;27;20126;-69
2022/11/06 01:40:46;;;;;;;16.77;11.48;;;;;;;0.00;66.34;100719.78;5078129;27;20035;-71
2022/11/06 01:43:42;;;;;;;15.80;10.27;;;;;;;0.03;66.34;100711.03;5081208;27;20035;-73
2022/11/06 01:46:06;;;;;;;16.83;10.52;;;;;;;-0.07;66.08;100706.78;5085755;27;20035;-71
2022/11/06 01:48:32;;;;;;;14.13;9.27;;;;;;;-0.07;66.13;100704.16;5100570;27;20103;-77
2022/11/06 01:50:57;;;;;;;13.15;9.70;;;;;;;0.05;66.53;100700.53;5093566;27;20039;-74
2022/11/06 01:53:23;;;;;;;14.68;8.43;;;;;;;0.14;66.63;100697.78;5102128;27;20047;-78
2022/11/06 01:55:52;;;;;;;19.15;12.07;;;;;;;0.00;66.02;100703.22;5076748;27;20042;-72
2022/11/06 01:58:20;;;;;;;11.63;8.63;;;;;;;0.06;66.03;100703.13;5086463;27;20510;-73
2022/11/06 02:00:45;;;;;;;16.45;10.15;;;;;;;0.03;66.21;100700.53;5104497;27;20070;-72
2022/11/06 02:03:13;;;;;;;15.88;11.15;;;;;;;0.02;65.49;100690.94;5107014;27;20408;-74
2022/11/06 02:05:39;;;;;;;15.40;9.75;;;;;;;0.01;65.84;100689.19;5102384;27;20087;-64
2022/11/06 02:08:06;;;;;;;17.27;11.05;;;;;;;-0.07;65.82;100691.94;5087917;27;20489;-73
2022/11/06 02:10:31;;;;;;;16.85;10.00;;;;;;;-0.08;65.73;100705.03;5096056;27;20042;-69
2022/11/06 02:13:07;;;;;;;15.25;9.82;;;;;;;-0.07;66.00;100701.53;5099223;27;20094;-72
2022/11/06 02:15:44;;;;;;;15.73;10.20;;;;;;;-0.11;65.71;100707.69;5080713;27;20039;-68
2022/11/06 02:18:33;;;;;;;16.08;11.38;;;;;;;-0.05;65.57;100705.03;5095374;27;20092;-66
2022/11/06 02:21:03;;;;;;;16.77;10.63;;;;;;;-0.21;65.52;100701.69;5104123;27;20443;-66
2022/11/06 02:23:35;;;;;;;18.02;11.27;;;;;;;-0.06;65.31;100708.53;5099530;27;20037;-66
2022/11/06 02:26:08;;;;;;;17.13;9.82;;;;;;;-0.14;65.20;100705.13;5079075;27;20083;-66
2022/11/06 02:28:38;;;;;;;16.20;10.50;;;;;;;-0.18;65.39;100712.16;5119782;27;20042;-68
2022/11/06 02:31:10;;;;;;;15.23;10.55;;;;;;;-0.20;65.85;100700.81;5110813;27;20064;-68
2022/11/06 02:33:54;;;;;;;17.05;10.55;;;;;;;-0.18;65.57;100701.66;5120743;27;20042;-68
2022/11/06 02:36:22;;;;;;;16.73;9.88;;;;;;;-0.19;65.37;100694.69;5120108;27;20118;-65
2022/11/06 02:38:52;;;;;;;15.15;10.25;;;;;;;-0.20;65.46;100694.69;5089342;27;20041;-69
2022/11/06 02:41:24;;;;;;;16.55;10.82;;;;;;;-0.24;65.38;100693.88;5084378;27;20126;-73
2022/11/06 02:43:53;;;;;;;19.17;9.25;;;;;;;-0.23;65.19;100700.00;5096410;27;20074;-70
2022/11/06 02:46:41;;;;;;;16.77;10.30;;;;;;;-0.34;65.60;100701.84;5120199;27;20051;-67
2022/11/06 02:49:12;;;;;;;21.55;10.65;;;;;;;-0.39;65.96;100715.84;5124311;27;20034;-68
2022/11/06 02:51:42;;;;;;;15.18;9.65;;;;;;;-0.31;65.61;100702.66;5118411;27;20124;-69
2022/11/06 02:54:09;;;;;;;17.10;10.30;;;;;;;-0.35;66.23;100710.59;5118436;27;20014;-73
2022/11/06 02:56:40;;;;;;;16.50;10.52;;;;;;;-0.39;65.98;100702.75;5120713;27;20043;-71
2022/11/06 02:59:11;;;;;;;20.77;11.18;;;;;;;-0.42;66.10;100699.28;5114674;27;20039;-69
2022/11/06 03:01:50;;;;;;;18.48;10.27;;;;;;;-0.28;65.79;100689.53;5093530;27;20017;-69
2022/11/06 03:04:30;;;;;;;15.75;9.80;;;;;;;-0.21;65.70;100695.56;5094188;27;20051;-68
2022/11/06 03:07:01;;;;;;;15.18;9.77;;;;;;;-0.37;65.42;100693.13;5112260;27;20047;-68
2022/11/06 03:09:32;;;;;;;16.02;10.20;;;;;;;-0.47;66.02;100696.75;5077702;27;20077;-66
2022/11/06 03:12:03;;;;;;;16.15;9.90;;;;;;;-0.57;66.10;100689.84;5079591;27;20070;-69
2022/11/06 03:14:41;;;;;;;14.27;9.40;;;;;;;-0.51;66.19;100689.78;5072851;27;20409;-73
2022/11/06 03:17:13;;;;;;;12.95;8.98;;;;;;;-0.49;66.22;100687.16;5085670;28;20450;-67
2022/11/06 03:19:48;;;;;;;14.30;10.07;;;;;;;-0.45;65.90;100683.59;5099795;27;20039;-66
2022/11/06 03:22:29;;;;;;;14.48;9.65;;;;;;;-0.56;66.56;100701.16;5062685;28;20112;-67
2022/11/06 03:25:04;;;;;;;14.90;9.85;;;;;;;-0.63;67.02;100689.03;5095476;27;20070;-66
2022/11/06 03:27:40;;;;;;;15.38;8.65;;;;;;;-0.58;66.84;100698.59;5078482;28;20034;-72
2022/11/06 03:30:08;;;;;;;15.73;10.13;;;;;;;-0.57;66.57;100700.34;5097889;27;20047;-72
2022/11/06 03:32:44;;;;;;;13.48;8.70;;;;;;;-0.50;66.41;100688.91;5093037;27;20443;-73
2022/11/06 03:35:18;;;;;;;14.15;8.05;;;;;;;-0.50;66.67;100688.91;5100428;27;20050;-72
2022/11/06 03:37:54;;;;;;;14.65;9.50;;;;;;;-0.50;66.69;100690.66;5116781;27;20034;-72
2022/11/06 03:40:23;;;;;;;11.90;8.43;;;;;;;-0.49;66.74;100688.03;5121106;27;20134;-75
2022/11/06 03:42:50;;;;;;;16.23;9.77;;;;;;;-0.55;66.69;100693.31;5124723;27;20039;-74
2022/11/06 03:45:23;;;;;;;16.65;10.13;;;;;;;-0.56;66.76;100683.72;5100719;27;20068;-72
2022/11/06 03:47:54;;;;;;;14.68;9.55;;;;;;;-0.52;66.67;100681.94;5108608;27;20043;-74
2022/11/06 03:50:48;;;;;;;13.68;9.05;;;;;;;-0.50;66.37;100686.28;5087154;27;20041;-74
2022/11/06 03:53:35;;;;;;;14.18;9.30;;;;;;;-0.43;66.50;100689.69;5080050;27;20504;-75
2022/11/06 03:56:09;;;;;;;14.70;8.13;;;;;;;-0.38;66.31;100686.16;5070839;27;20031;-73
2022/11/06 03:58:38;;;;;;;14.48;8.98;;;;;;;-0.44;66.47;100683.59;5084040;27;20501;-72
2022/11/06 04:01:06;;;;;;;13.27;9.05;;;;;;;-0.47;66.43;100677.53;5055951;27;20039;-75
2022/11/06 04:03:54;;;;;;;14.30;9.50;;;;;;;-0.48;67.17;100684.53;5083271;27;20034;-74
2022/11/06 04:06:25;;;;;;;15.10;9.95;;;;;;;-0.51;67.40;100681.94;5081050;27;20042;-74
2022/11/06 04:14:26;;;;;;;14.30;9.85;;;;;;;-0.46;67.17;100676.66;5100037;27;20081;-74
2022/11/06 04:16:55;;;;;;;16.77;10.45;;;;;;;-0.50;67.46;100673.19;5100229;27;20392;-73
2022/11/06 04:19:21;;;;;;;14.25;9.38;;;;;;;-0.46;67.64;100681.91;5102368;27;20043;-73
2022/11/06 04:22:04;;;;;;;14.98;9.85;;;;;;;-0.49;67.32;100677.53;5102100;27;20103;-73
2022/11/06 04:27:35;;;;;;;14.98;9.20;;;;;;;-0.43;67.17;100682.72;5102877;27;20047;-73
2022/11/06 04:30:09;;;;;;;16.63;11.38;;;;;;;-0.46;67.04;100679.28;5082838;27;20047;-72
2022/11/06 04:32:37;;;;;;;14.55;10.30;;;;;;;-0.49;67.19;100674.94;5099675;27;20039;-73
2022/11/06 04:35:15;;;;;;;14.35;10.00;;;;;;;-0.44;67.55;100683.59;5075227;27;20051;-71
2022/11/06 04:38:06;;;;;;;16.63;11.35;;;;;;;-0.39;67.43;100679.19;5113886;27;20043;-71
2022/11/06 04:40:46;;;;;;;17.48;11.07;;;;;;;-0.39;67.17;100684.41;5113701;27;20035;-67
2022/11/06 04:43:20;;;;;;;18.15;11.90;;;;;;;-0.39;67.62;100688.78;5114565;27;20515;-66
2022/11/06 04:45:52;;;;;;;19.60;11.47;;;;;;;-0.34;67.45;100688.75;5113143;27;20128;-68
2022/11/06 04:48:17;;;;;;;16.60;11.20;;;;;;;-0.41;67.36;100693.19;5094454;27;20384;-65
2022/11/06 04:50:48;;;;;;;19.45;11.38;;;;;;;-0.31;67.00;100694.81;5104428;27;20043;-66
2022/11/06 04:53:15;;;;;;;17.10;10.25;;;;;;;-0.41;67.36;100698.41;5112282;27;20039;-65
2022/11/06 04:55:48;;;;;;;25.73;14.43;;;;;;;-0.41;67.53;100693.19;5085260;27;20126;-67
2022/11/06 04:58:13;;;;;;;20.08;12.23;;;;;;;-0.54;67.93;100697.66;5110078;27;20039;-65
2022/11/06 05:00:43;;;;;;;21.73;13.15;;;;;;;-0.52;67.71;100692.41;5108710;27;20047;-65
2022/11/06 05:03:07;;;;;;;22.10;12.43;;;;;;;-0.51;67.75;100689.78;5092368;27;20046;-66
2022/11/06 05:05:32;;;;;;;17.67;12.02;;;;;;;-0.49;68.09;100693.25;5106468;27;20039;-65
2022/11/06 05:07:56;;;;;;;21.70;13.50;;;;;;;-0.46;68.04;100687.13;5097612;27;20047;-64
2022/11/06 05:10:21;;;;;;;19.55;12.73;;;;;;;-0.44;67.54;100695.81;5079133;27;20039;-66
2022/11/06 05:12:46;;;;;;;21.50;12.23;;;;;;;-0.48;67.85;100695.00;5079105;27;20099;-65
2022/11/06 05:15:11;;;;;;;19.67;13.10;;;;;;;-0.50;68.05;100688.91;5080341;27;20035;-68
2022/11/06 05:17:36;;;;;;;24.13;14.43;;;;;;;-0.55;68.09;100693.31;5098942;27;20027;-67
2022/11/06 05:20:00;;;;;;;25.80;13.60;;;;;;;-0.51;68.39;100700.25;5062595;27;20049;-66
2022/11/06 05:25:08;;;;;;;22.40;13.25;;;;;;;-0.37;68.12;100694.88;5099075;27;20051;-67
2022/11/06 05:27:32;;;;;;;20.77;12.00;;;;;;;-0.37;68.13;100692.28;5098981;27;20125;-67
2022/11/06 05:29:57;;;;;;;20.80;13.18;;;;;;;-0.32;67.73;100700.06;5063536;27;20049;-67
2022/11/06 05:32:22;;;;;;;17.45;11.02;;;;;;;-0.36;67.72;100694.00;5081693;27;20039;-68
2022/11/06 05:34:46;;;;;;;20.50;13.25;;;;;;;-0.40;67.12;100698.41;5081944;27;20035;-68
2022/11/06 05:37:11;;;;;;;18.52;11.93;;;;;;;-0.45;68.01;100689.72;5081021;27;20139;-67
2022/11/06 05:39:36;;;;;;;17.85;11.65;;;;;;;-0.57;67.86;100704.69;5083126;27;20054;-69
2022/11/06 05:42:00;;;;;;;18.92;11.82;;;;;;;-0.56;67.85;100682.84;5100347;27;20055;-68
2022/11/06 05:44:25;;;;;;;15.43;9.77;;;;;;;-0.60;68.47;100699.47;5100554;27;20043;-68
2022/11/06 05:46:49;;;;;;;16.88;10.68;;;;;;;-0.64;68.26;100682.06;5091083;27;20130;-67
2022/11/06 05:49:14;;;;;;;16.30;9.80;;;;;;;-0.54;67.87;100679.34;5086349;27;20042;-67
2022/11/06 05:51:39;;;;;;;16.40;11.02;;;;;;;-0.54;67.79;100678.47;5087478;27;20057;-68
2022/11/06 05:54:03;;;;;;;18.35;11.52;;;;;;;-0.65;68.37;100681.19;5088378;27;20074;-67
2022/11/06 05:56:28;;;;;;;14.75;9.63;;;;;;;-0.56;68.35;100675.84;5098935;27;20069;-68
2022/11/06 05:58:53;;;;;;;16.25;10.80;;;;;;;-0.50;68.36;100670.56;5079760;27;20047;-67
2022/11/06 06:01:17;;;;;;;13.80;8.55;;;;;;;-0.53;68.04;100665.34;5078707;27;20035;-68
2022/11/06 06:03:42;;;;;;;16.17;8.80;;;;;;;-0.51;68.11;100667.97;5080572;27;20122;-65
2022/11/06 06:06:07;;;;;;;12.85;8.77;;;;;;;-0.56;67.87;100670.63;5097036;27;20043;-67
2022/11/06 06:08:31;;;;;;;12.75;8.73;;;;;;;-0.50;68.11;100662.72;5078458;27;20094;-66
2022/11/06 06:10:56;;;;;;;13.32;8.50;;;;;;;-0.39;67.25;100671.31;5096781;27;20058;-65
2022/11/06 06:13:20;;;;;;;15.02;10.77;;;;;;;-0.51;67.60;100668.84;5097618;27;20039;-67
2022/11/06 06:15:45;;;;;;;13.98;8.73;;;;;;;-0.48;67.72;100674.03;5097327;27;20035;-67
2022/11/06 06:18:10;;;;;;;12.93;9.23;;;;;;;-0.52;67.31;100667.09;5078089;27;20050;-66
2022/11/06 06:20:35;;;;;;;13.27;10.43;;;;;;;-0.60;67.92;100674.16;5096577;27;20054;-66
2022/11/06 06:23:00;;;;;;;12.70;8.70;;;;;;;-0.64;68.44;100671.56;5096579;27;20074;-65
2022/11/06 06:25:27;;;;;;;13.43;8.95;;;;;;;-0.56;68.05;100673.22;5095959;27;20067;-65
2022/11/06 06:27:52;;;;;;;11.82;8.50;;;;;;;-0.52;68.48;100667.09;5097148;27;20545;-66
2022/11/06 06:30:17;;;;;;;18.90;10.00;;;;;;;-0.49;68.55;100667.06;5097823;27;20031;-68
2022/11/06 06:32:41;;;;;;;13.70;8.88;;;;;;;-0.39;68.52;100660.84;5096972;27;20065;-68
2022/11/06 06:35:06;;;;;;;16.80;10.65;;;;;;;-0.33;68.30;100669.50;5078457;27;20154;-68
2022/11/06 06:37:31;;;;;;;13.30;8.40;;;;;;;-0.24;67.93;100667.69;5096851;27;20045;-67
2022/11/06 06:39:56;;;;;;;13.48;8.18;;;;;;;-0.18;68.20;100671.97;5096084;27;20046;-68
2022/11/06 06:42:20;;;;;;;11.30;8.15;;;;;;;-0.13;68.16;100670.19;5096465;27;20118;-68
2022/11/06 06:44:45;;;;;;;13.30;8.27;;;;;;;-0.06;67.65;100671.81;5096866;27;20129;-67
2022/11/06 06:47:09;;;;;;;16.80;9.23;;;;;;;-0.09;67.45;100674.47;5090224;27;20035;-67
2022/11/06 06:49:35;;;;;;;15.18;9.65;;;;;;;-0.06;67.52;100671.81;5098759;27;20115;-66
2022/11/06 06:52:00;;;;;;;14.10;8.45;;;;;;;0.04;67.72;100667.34;5096350;27;20047;-66
2022/11/06 06:54:24;;;;;;;11.90;8.55;;;;;;;0.08;67.76;100677.78;5077551;27;20098;-67
2022/11/06 06:56:49;;;;;;;16.90;8.82;;;;;;;0.14;67.68;100677.69;5096119;27;20069;-67
2022/11/06 06:59:14;;;;;;;13.65;8.98;;;;;;;0.14;67.26;100675.06;5096036;27;20095;-68
2022/11/06 07:01:39;;;;;;;13.63;7.90;;;;;;;0.00;67.06;100667.38;5078101;27;20031;-68
2022/11/06 07:04:04;;;;;;;8.98;6.15;;;;;;;0.01;67.59;100676.09;5096998;27;20043;-67
2022/11/06 07:06:29;;;;;;;10.30;7.45;;;;;;;0.03;66.37;100669.09;5078138;27;20043;-67
2022/11/06 07:08:55;;;;;;;10.85;7.60;;;;;;;-0.17;66.95;100671.94;5096128;27;20043;-67
2022/11/06 07:11:20;;;;;;;12.40;8.45;;;;;;;-0.24;66.81;100672.91;5077476;27;20047;-67
2022/11/06 07:13:44;;;;;;;12.02;7.60;;;;;;;-0.40;67.73;100669.59;5097170;27;20047;-73
2022/11/06 07:16:10;;;;;;;10.80;7.88;;;;;;;-0.42;67.36;100676.59;5110528;27;20045;-73
2022/11/06 07:18:36;;;;;;;9.82;6.70;;;;;;;-0.36;67.36;100675.66;5081948;27;20050;-74
2022/11/06 07:21:07;;;;;;;11.02;7.60;;;;;;;-0.43;68.27;100676.59;5077498;28;20440;-72
2022/11/06 07:23:33;;;;;;;11.27;7.88;;;;;;;-0.48;68.47;100679.28;5095659;27;20501;-73
2022/11/06 07:25:59;;;;;;;10.43;7.70;;;;;;;-0.42;68.19;100673.97;5095668;27;20074;-73
2022/11/06 07:28:23;;;;;;;12.13;8.10;;;;;;;-0.48;68.55;100675.78;5083093;27;20074;-71
2022/11/06 07:30:48;;;;;;;12.82;8.63;;;;;;;-0.55;68.33;100672.34;5102161;27;20031;-73
2022/11/06 07:33:13;;;;;;;12.05;8.52;;;;;;;-0.59;68.32;100678.53;5103799;27;20042;-74
2022/11/06 07:35:38;;;;;;;12.48;7.50;;;;;;;-0.64;68.77;100684.66;5110930;27;20057;-73
2022/11/06 07:38:07;;;;;;;13.82;9.23;;;;;;;-0.75;68.93;100672.56;5128071;27;20046;-70
2022/11/06 07:40:33;;;;;;;15.10;6.88;;;;;;;-0.62;68.64;100689.03;5113378;27;20039;-73
2022/11/06 07:43:08;;;;;;;11.48;6.68;;;;;;;-0.58;68.86;100672.41;5118038;27;20054;-73
2022/11/06 07:45:33;;;;;;;14.27;7.80;;;;;;;-0.59;68.90;100675.91;5104421;27;20508;-74
2022/11/06 07:47:58;;;;;;;11.18;7.95;;;;;;;-0.56;69.23;100662.75;5120456;27;20413;-74
2022/11/06 07:50:24;;;;;;;16.02;7.78;;;;;;;-0.50;69.30;100660.09;5086773;27;20115;-73
2022/11/06 07:52:49;;;;;;;9.68;6.95;;;;;;;-0.42;69.49;100663.50;5105900;27;20054;-74
2022/11/06 07:55:14;;;;;;;11.20;7.47;;;;;;;-0.37;69.20;100664.31;5105827;27;20031;-73
2022/11/06 07:57:38;;;;;;;8.57;6.65;;;;;;;-0.31;68.72;100655.50;5104715;27;20451;-75
2022/11/06 08:00:06;;;;;;;18.40;8.23;;;;;;;-0.29;68.58;100658.13;5108999;27;20039;-72
2022/11/06 08:02:37;;;;;;;12.50;8.18;;;;;;;-0.25;68.75;100654.59;5107684;27;20054;-75
2022/11/06 08:05:03;;;;;;;11.32;7.20;;;;;;;-0.12;68.26;100657.06;5110212;27;20046;-74
2022/11/06 08:07:28;;;;;;;10.85;7.75;;;;;;;-0.07;68.15;100654.38;5105429;27;20050;-73
2022/11/06 08:09:53;;;;;;;12.55;8.13;;;;;;;-0.07;67.84;100654.38;5104747;27;20039;-70
2022/11/06 08:12:18;;;;;;;13.90;9.02;;;;;;;-0.02;68.09;100655.19;5087095;27;20546;-76
2022/11/06 08:14:43;;;;;;;12.25;8.00;;;;;;;0.07;68.30;100662.94;5107595;27;20374;-75
2022/11/06 08:17:08;;;;;;;11.13;7.82;;;;;;;0.17;67.94;100664.53;5102578;27;20027;-74
2022/11/06 08:19:33;;;;;;;12.70;8.75;;;;;;;0.17;67.40;100661.91;5103156;27;20130;-72
2022/11/06 08:21:58;;;;;;;11.60;8.07;;;;;;;0.26;67.56;100663.56;5107250;27;20046;-73
2022/11/06 08:24:22;;;;;;;13.90;9.63;;;;;;;0.25;67.61;100654.81;5103361;27;20537;-72
2022/11/06 08:26:48;;;;;;;9.65;7.07;;;;;;;0.29;67.17;100674.00;5080497;27;20074;-72
2022/11/06 08:29:13;;;;;;;12.60;8.63;;;;;;;0.24;67.26;100660.06;5110673;27;20469;-74
2022/11/06 08:31:38;;;;;;;11.65;8.65;;;;;;;0.20;67.42;100669.75;5089915;27;20049;-73
2022/11/06 08:34:04;;;;;;;14.88;8.45;;;;;;;0.27;66.66;100668.78;5104470;27;20039;-74
2022/11/06 08:36:29;;;;;;;14.40;11.32;;;;;;;0.08;66.92;100664.66;5102684;27;20035;-69
2022/11/06 08:38:54;;;;;;;20.42;10.20;;;;;;;0.00;67.13;100658.66;5101099;27;20046;-72
2022/11/06 08:41:19;;;;;;;11.85;8.38;;;;;;;0.00;67.24;100661.28;5082813;27;20408;-74
2022/11/06 08:43:44;;;;;;;13.65;9.05;;;;;;;0.10;66.71;100654.16;5106260;27;20035;-72
2022/11/06 08:46:10;;;;;;;13.75;9.05;;;;;;;0.05;66.96;100664.69;5103289;27;20039;-72
2022/11/06 08:48:35;;;;;;;15.52;10.30;;;;;;;-0.03;66.96;100666.56;5111983;27;20034;-72
2022/11/06 08:51:01;;;;;;;17.60;11.07;;;;;;;-0.15;67.00;100662.31;5099389;27;20176;-73
2022/11/06 08:53:26;;;;;;;14.93;9.13;;;;;;;-0.05;66.98;100652.59;5101128;27;20064;-74
2022/11/06 08:55:51;;;;;;;14.98;10.02;;;;;;;-0.15;67.54;100650.97;5099215;27;20043;-71
2022/11/06 08:58:17;;;;;;;16.35;10.05;;;;;;;-0.08;67.64;100653.50;5102029;27;20031;-73
2022/11/06 09:00:43;;;;;;;15.27;10.25;;;;;;;0.03;67.14;100653.34;5099667;27;20213;-73
2022/11/06 09:03:13;;;;;;;14.65;9.57;;;;;;;0.13;66.82;100647.09;5099649;27;20842;-75
2022/11/06 09:05:43;;;;;;;17.88;11.63;;;;;;;0.06;66.95;100647.22;5100638;27;20118;-73
2022/11/06 09:08:09;;;;;;;15.68;10.63;;;;;;;-0.03;67.66;100645.59;5098669;27;20039;-67
2022/11/06 09:10:36;;;;;;;19.10;9.80;;;;;;;-0.14;68.04;100647.47;5098309;27;20031;-66
2022/11/06 09:13:00;;;;;;;17.70;10.07;;;;;;;-0.14;68.28;100637.00;5099004;27;20027;-67
2022/11/06 09:15:27;;;;;;;17.27;10.00;;;;;;;-0.22;68.73;100642.31;5097851;27;20071;-67
2022/11/06 09:17:53;;;;;;;15.82;10.77;;;;;;;-0.11;68.82;100639.53;5097574;27;20042;-67
2022/11/06 09:20:19;;;;;;;20.92;11.30;;;;;;;-0.04;68.16;100638.59;5097064;27;20107;-67
2022/11/06 09:22:45;;;;;;;16.85;10.63;;;;;;;0.02;67.79;100638.50;5073079;27;20042;-68
2022/11/06 09:25:10;;;;;;;16.38;10.65;;;;;;;-0.06;68.03;100636.00;5100868;27;20078;-69
2022/11/06 09:27:50;;;;;;;18.27;10.70;;;;;;;0.24;66.78;100639.97;5097744;27;20050;-66
2022/11/06 09:30:17;;;;;;;18.83;10.50;;;;;;;0.02;67.01;100641.13;5097600;27;20405;-67
2022/11/06 09:32:51;;;;;;;17.90;11.48;;;;;;;0.06;66.64;100632.34;5078928;27;20057;-67
2022/11/06 09:35:16;;;;;;;14.55;10.88;;;;;;;-0.16;66.91;100623.03;5097598;27;20031;-68
2022/11/06 09:37:41;;;;;;;20.70;12.50;;;;;;;-0.26;67.46;100631.88;5097162;27;20047;-68
2022/11/06 09:40:07;;;;;;;17.02;9.48;;;;;;;-0.28;68.51;100618.81;5097332;27;20046;-66
2022/11/06 09:42:56;;;;;;;19.83;11.90;;;;;;;-0.03;67.33;100611.50;5097302;27;20133;-70
2022/11/06 09:45:25;;;;;;;21.63;12.55;;;;;;;-0.08;67.76;100611.56;5097262;27;20087;-76
2022/11/06 09:47:58;;;;;;;20.98;11.75;;;;;;;-0.19;67.61;100608.22;5112878;27;20494;-70
2022/11/06 09:50:29;;;;;;;11.70;6.88;;;;;;;0.18;66.97;100610.34;5077376;28;20088;-70
2022/11/06 09:53:05;;;;;;;23.65;11.68;;;;;;;0.00;66.44;100609.69;5078566;27;20046;-72
2022/11/06 09:55:42;;;;;;;15.35;9.70;;;;;;;-0.05;67.14;100606.28;5107633;27;20066;-73
2022/11/06 09:58:17;;;;;;;16.17;10.70;;;;;;;-0.03;66.58;100598.41;5079456;27;20039;-72
2022/11/06 10:00:42;;;;;;;16.80;11.55;;;;;;;-0.09;66.71;100606.34;5096460;27;20047;-72
2022/11/06 10:03:22;;;;;;;14.00;9.63;;;;;;;-0.04;66.99;100599.28;5096327;27;20043;-73
2022/11/06 10:05:47;;;;;;;13.80;9.32;;;;;;;0.00;67.13;100595.75;5078304;27;20092;-72
2022/11/06 10:08:28;;;;;;;15.02;9.90;;;;;;;0.16;67.51;100604.25;5078239;27;20043;-72
2022/11/06 10:11:04;;;;;;;15.10;9.95;;;;;;;0.15;66.42;100603.38;5078620;27;20050;-67
2022/11/06 10:13:40;;;;;;;20.70;11.18;;;;;;;0.16;66.18;100605.13;5078191;27;20035;-67
2022/11/06 10:16:15;;;;;;;19.05;12.00;;;;;;;-0.02;66.72;100605.38;5096740;27;20122;-67
2022/11/06 10:18:39;;;;;;;13.85;9.23;;;;;;;0.08;67.00;100607.00;5078886;27;20450;-67
2022/11/06 10:21:24;;;;;;;14.25;7.90;;;;;;;0.43;65.82;100613.50;5096379;27;20452;-67
2022/11/06 10:23:51;;;;;;;;;;;;;;;0.31;65.56;100610.16;5097173;27;20149;-68
2022/11/06 10:26:19;;;;;;;11.48;6.25;;;;;;;0.20;65.73;100609.44;5078435;27;19969;-67
2022/11/06 10:29:01;;;;;;;13.88;9.07;;;;;;;0.24;65.52;100607.63;5096260;27;20039;-68
2022/11/06 10:31:43;;;;;;;14.05;9.27;;;;;;;-0.08;66.57;100600.22;5096160;27;20039;-67
2022/11/06 10:34:16;;;;;;;16.55;8.50;;;;;;;-0.11;66.38;100602.84;5096254;27;20123;-66
2022/11/06 10:36:51;;;;;;;15.48;8.57;;;;;;;-0.10;67.38;100602.84;5078171;27;20039;-65
2022/11/06 10:39:23;;;;;;;20.05;11.27;;;;;;;-0.17;67.09;100595.97;5077890;27;20126;-68
2022/11/06 10:41:53;;;;;;;14.73;8.50;;;;;;;0.00;67.20;100603.63;5078086;27;20039;-65
2022/11/06 10:44:24;;;;;;;16.05;9.30;;;;;;;-0.01;67.15;100605.38;5061036;27;20047;-67
2022/11/06 10:46:54;;;;;;;17.08;10.77;;;;;;;-0.05;67.41;100603.66;5086865;27;20043;-67
2022/11/06 10:49:37;;;;;;;13.18;8.68;;;;;;;0.14;67.49;100606.03;5082374;27;20188;-67
2022/11/06 10:52:20;;;;;;;13.77;9.23;;;;;;;0.21;66.13;100603.31;5097500;27;20038;-67
2022/11/06 10:55:00;;;;;;;13.13;9.23;;;;;;;0.21;66.16;100597.22;5097078;27;20046;-71
2022/11/06 10:57:40;;;;;;;14.85;9.43;;;;;;;0.17;66.11;100608.63;5078980;27;20039;-67
2022/11/06 11:00:10;;;;;;;14.85;9.25;;;;;;;0.03;65.97;100603.56;5095904;27;20409;-66
2022/11/06 11:02:38;;;;;;;16.88;9.10;;;;;;;-0.10;66.72;100601.97;5095615;27;20485;-68
2022/11/06 11:05:12;;;;;;;13.13;8.05;;;;;;;-0.11;66.79;100595.00;5062090;27;20050;-66
2022/11/06 11:07:37;;;;;;;16.17;11.18;;;;;;;-0.10;67.31;100586.25;5060246;27;20125;-67
2022/11/06 11:10:47;;;;;;;13.15;8.35;;;;;;;0.08;67.06;100601.75;5077850;28;20154;-67
2022/11/06 11:13:20;;;;;;;13.30;8.13;;;;;;;0.16;65.89;100586.78;5092565;27;20093;-71
2022/11/06 11:15:46;;;;;;;11.75;7.05;;;;;;;0.22;65.97;100577.97;5079262;28;20039;-68
2022/11/06 11:18:12;;;;;;;13.07;8.07;;;;;;;0.10;66.28;100579.00;5063115;27;20030;-68
2022/11/06 11:20:44;;;;;;;14.38;9.10;;;;;;;0.14;65.93;100575.44;5104803;27;20055;-66
2022/11/06 11:23:14;;;;;;;12.20;7.97;;;;;;;0.01;66.35;100581.72;5104689;27;20039;-67
2022/11/06 11:25:42;;;;;;;16.88;8.63;;;;;;;-0.06;66.84;100564.38;5102350;27;20130;-69
2022/11/06 11:28:20;;;;;;;12.98;7.93;;;;;;;0.18;66.31;100565.78;5082992;28;20045;-70
2022/11/06 11:30:51;;;;;;;14.55;9.48;;;;;;;0.02;66.49;100570.34;5097067;27;20191;-71
2022/11/06 11:33:20;;;;;;;13.18;9.13;;;;;;;-0.04;66.85;100565.22;5076876;28;20070;-69
2022/11/06 11:35:48;;;;;;;12.27;8.40;;;;;;;-0.02;67.12;100566.06;5076978;28;20043;-71
2022/11/06 11:38:15;;;;;;;13.48;7.47;;;;;;;0.07;67.02;100573.78;5076802;28;20493;-72